Time;durP1;ratioP1;P1;durP2;ratioP2;P2;SDS_P1;SDS_P2;PMS_P1;PMS_P2;Temp;Humidity;BMP_temperature;BMP_pressure;BME280_temperature;BME280_humidity;BME280_pressure;Samples;Min_cycle;Max_cycle;Signal;HPM_P1;HPM_P2
2022/06/29 00:00:15;;;;;;;4.88;1.10;;;17.60;99.90;;;;;;4992097;28;20085;-70
2022/06/29 00:02:43;;;;;;;2.40;1.00;;;17.60;99.90;;;;;;4975966;28;20038;-70
2022/06/29 00:05:10;;;;;;;6.57;1.40;;;17.50;99.90;;;;;;4976057;28;20039;-70
2022/06/29 00:07:36;;;;;;;5.13;1.75;;;17.50;99.90;;;;;;4976269;28;20050;-70
2022/06/29 00:10:03;;;;;;;5.68;1.50;;;17.50;99.90;;;;;;4976045;28;20034;-70
2022/06/29 00:12:29;;;;;;;5.43;1.40;;;17.40;99.90;;;;;;4975984;28;20074;-70
2022/06/29 00:14:55;;;;;;;4.78;1.20;;;17.50;99.90;;;;;;4975671;28;20085;-70
2022/06/29 00:17:21;;;;;;;4.85;1.30;;;17.40;99.90;;;;;;4975722;28;20118;-70
2022/06/29 00:19:47;;;;;;;4.93;1.23;;;17.40;99.90;;;;;;4975932;28;20458;-70
2022/06/29 00:22:12;;;;;;;5.20;1.60;;;17.40;99.90;;;;;;4976213;28;20082;-70
2022/06/29 00:24:38;;;;;;;8.18;1.77;;;17.40;99.90;;;;;;4996641;28;20046;-70
2022/06/29 00:27:05;;;;;;;4.05;1.38;;;17.40;99.90;;;;;;4963017;28;20373;-70
2022/06/29 00:29:30;;;;;;;3.47;1.10;;;17.40;99.90;;;;;;4979123;28;20038;-70
2022/06/29 00:31:56;;;;;;;4.25;1.40;;;17.40;99.90;;;;;;4996712;28;20042;-70
2022/06/29 00:34:21;;;;;;;3.53;1.40;;;17.30;99.90;;;;;;4978923;28;20053;-70
2022/06/29 00:36:47;;;;;;;5.40;1.48;;;17.30;99.90;;;;;;4978938;28;20041;-70
2022/06/29 00:39:13;;;;;;;4.63;1.50;;;17.30;99.90;;;;;;4978951;28;20046;-70
2022/06/29 00:41:41;;;;;;;6.90;1.42;;;17.30;99.90;;;;;;4979025;28;20050;-70
2022/06/29 00:44:09;;;;;;;4.88;1.48;;;17.30;99.90;;;;;;4995260;28;20046;-70
2022/06/29 00:46:48;;;;;;;4.55;1.40;;;17.20;99.90;;;;;;4978895;28;20057;-70
2022/06/29 00:49:15;;;;;;;3.60;1.42;;;17.30;99.90;;;;;;4962577;28;20054;-70
2022/06/29 00:51:45;;;;;;;4.65;1.90;;;17.20;99.90;;;;;;4994754;28;20045;-70
2022/06/29 00:54:23;;;;;;;3.35;1.40;;;17.20;99.90;;;;;;4978700;28;20045;-70
2022/06/29 00:56:50;;;;;;;3.15;1.30;;;17.20;99.90;;;;;;4978846;28;20043;-70
2022/06/29 00:59:19;;;;;;;3.78;1.30;;;17.20;99.90;;;;;;4978476;28;20530;-70
2022/06/29 01:01:45;;;;;;;4.43;1.40;;;17.20;99.90;;;;;;4978423;28;20513;-70
2022/06/29 01:04:11;;;;;;;3.90;1.38;;;17.20;99.90;;;;;;4978640;28;20069;-70
2022/06/29 01:06:37;;;;;;;4.30;1.20;;;17.10;99.90;;;;;;4978321;28;20491;-70
2022/06/29 01:09:03;;;;;;;4.25;1.30;;;17.10;99.90;;;;;;4978317;28;20045;-70
2022/06/29 01:11:29;;;;;;;5.20;1.50;;;17.10;99.90;;;;;;4994509;28;20085;-70
2022/06/29 01:13:55;;;;;;;5.60;1.90;;;17.10;99.90;;;;;;4978197;28;20447;-70
2022/06/29 01:16:21;;;;;;;5.47;1.60;;;17.10;99.90;;;;;;4978181;28;20034;-70
2022/06/29 01:18:46;;;;;;;3.63;1.52;;;17.10;99.90;;;;;;4978151;28;20049;-70
2022/06/29 01:21:13;;;;;;;3.05;1.65;;;17.10;99.90;;;;;;4961962;28;20038;-70
2022/06/29 01:23:39;;;;;;;6.10;2.03;;;17.10;99.90;;;;;;4962239;28;20035;-70
2022/06/29 01:26:07;;;;;;;5.00;1.77;;;17.10;99.90;;;;;;4978221;28;20054;-70
2022/06/29 01:28:33;;;;;;;7.28;1.80;;;17.00;99.90;;;;;;4994146;28;20042;-70
2022/06/29 01:30:59;;;;;;;4.88;1.75;;;17.00;99.90;;;;;;4993980;28;20092;-70
2022/06/29 01:33:25;;;;;;;7.65;2.28;;;17.00;99.90;;;;;;4994230;28;20400;-70
2022/06/29 01:35:50;;;;;;;4.07;2.03;;;17.00;99.90;;;;;;4995509;28;20042;-70
2022/06/29 01:38:17;;;;;;;6.20;2.00;;;17.00;99.90;;;;;;4978225;28;20038;-70
2022/06/29 01:40:43;;;;;;;6.13;1.77;;;17.00;99.90;;;;;;4995109;28;20042;-70
2022/06/29 01:43:09;;;;;;;6.07;1.88;;;17.00;99.90;;;;;;4977793;28;20503;-70
2022/06/29 01:45:34;;;;;;;6.05;2.05;;;17.00;99.90;;;;;;4994376;28;20046;-70
2022/06/29 01:48:00;;;;;;;5.60;1.70;;;17.00;99.90;;;;;;4977652;28;20455;-70
2022/06/29 01:50:26;;;;;;;4.82;1.92;;;16.90;99.90;;;;;;4977480;28;20384;-70
2022/06/29 01:52:51;;;;;;;4.53;1.85;;;16.90;99.90;;;;;;4978016;28;20069;-70
2022/06/29 01:55:17;;;;;;;5.00;1.92;;;16.90;99.90;;;;;;4977518;28;20458;-70
2022/06/29 01:57:43;;;;;;;4.68;1.92;;;16.90;99.90;;;;;;4977558;28;20040;-70
2022/06/29 02:00:09;;;;;;;5.03;2.00;;;16.90;99.90;;;;;;4977743;28;20124;-70
2022/06/29 02:02:35;;;;;;;5.95;1.88;;;16.90;99.90;;;;;;4977481;28;20506;-69
2022/06/29 02:05:01;;;;;;;7.32;2.40;;;16.90;99.90;;;;;;4961658;28;20138;-69
2022/06/29 02:07:26;;;;;;;6.30;1.92;;;16.90;99.90;;;;;;4977376;28;20141;-70
2022/06/29 02:09:52;;;;;;;7.18;2.20;;;16.90;99.90;;;;;;4977376;28;20096;-70
2022/06/29 02:12:17;;;;;;;5.72;2.20;;;16.90;99.90;;;;;;4977099;28;20131;-70
2022/06/29 02:14:43;;;;;;;5.70;1.88;;;16.90;99.90;;;;;;4977425;28;20038;-70
2022/06/29 02:17:08;;;;;;;4.05;1.88;;;16.90;99.90;;;;;;4977400;28;20435;-70
2022/06/29 02:19:34;;;;;;;8.38;1.92;;;16.90;99.90;;;;;;4961160;28;20515;-70
2022/06/29 02:22:01;;;;;;;5.35;2.15;;;16.90;99.90;;;;;;4977194;28;20042;-70
2022/06/29 02:24:27;;;;;;;5.20;2.10;;;16.90;99.90;;;;;;4994395;28;20061;-69
2022/06/29 02:26:52;;;;;;;4.28;2.10;;;16.90;99.90;;;;;;4994658;28;20486;-69
2022/06/29 02:29:18;;;;;;;6.25;2.22;;;17.00;99.90;;;;;;4977692;28;20390;-69
2022/06/29 02:34:43;;;;;;;6.45;2.10;;;17.00;99.90;;;;;;4976794;28;20073;-69
2022/06/29 02:37:09;;;;;;;6.85;2.13;;;17.00;99.90;;;;;;4976667;28;20045;-69
2022/06/29 02:39:35;;;;;;;4.95;2.00;;;17.00;99.90;;;;;;4960879;28;20442;-70
2022/06/29 02:42:01;;;;;;;6.13;2.22;;;17.00;99.90;;;;;;4976860;28;20082;-70
2022/06/29 02:44:27;;;;;;;5.22;1.90;;;17.00;99.90;;;;;;4992743;28;20038;-70
2022/06/29 02:46:52;;;;;;;4.97;2.08;;;17.00;99.90;;;;;;4992480;28;20108;-70
2022/06/29 02:49:18;;;;;;;4.13;2.20;;;17.00;99.90;;;;;;4977096;28;20046;-70
2022/06/29 02:51:43;;;;;;;4.30;2.28;;;17.00;99.90;;;;;;4976399;28;20495;-70
2022/06/29 02:54:09;;;;;;;7.13;2.40;;;17.00;99.90;;;;;;4976786;28;20120;-69
2022/06/29 02:56:35;;;;;;;4.90;2.00;;;17.00;99.90;;;;;;4960779;28;20121;-69
2022/06/29 02:59:00;;;;;;;4.40;2.20;;;17.00;99.90;;;;;;4976583;28;20483;-69
2022/06/29 03:01:26;;;;;;;4.50;2.25;;;17.00;99.90;;;;;;4993792;28;20134;-70
2022/06/29 03:03:51;;;;;;;4.90;2.05;;;17.00;99.90;;;;;;4960370;28;20046;-70
2022/06/29 03:06:17;;;;;;;5.35;2.28;;;17.00;99.90;;;;;;4976525;28;20097;-70
2022/06/29 03:08:42;;;;;;;8.30;2.50;;;17.00;99.90;;;;;;4976381;28;20078;-70
2022/06/29 03:11:08;;;;;;;5.43;2.50;;;16.90;99.90;;;;;;4976227;28;20046;-70
2022/06/29 03:13:34;;;;;;;6.38;2.25;;;16.90;99.90;;;;;;4976317;28;20046;-69
2022/06/29 03:15:59;;;;;;;8.57;2.50;;;16.90;99.90;;;;;;4976346;28;20038;-69
2022/06/29 03:18:25;;;;;;;4.93;2.28;;;16.90;99.90;;;;;;4976301;28;20034;-69
2022/06/29 03:20:50;;;;;;;6.35;2.42;;;16.80;99.90;;;;;;4976173;28;20125;-70
2022/06/29 03:23:16;;;;;;;4.05;2.22;;;16.80;99.90;;;;;;4976467;28;20049;-70
2022/06/29 03:25:41;;;;;;;4.85;2.28;;;16.80;99.90;;;;;;4976674;28;20569;-70
2022/06/29 03:28:07;;;;;;;6.82;2.40;;;16.80;99.90;;;;;;4976307;28;20049;-70
2022/06/29 03:30:33;;;;;;;4.90;2.40;;;16.70;99.90;;;;;;4976150;28;20042;-70
2022/06/29 03:32:58;;;;;;;3.45;2.63;;;16.80;99.90;;;;;;4976112;28;20038;-70
2022/06/29 03:35:24;;;;;;;5.78;2.65;;;16.70;99.90;;;;;;4976387;28;20038;-70
2022/06/29 03:37:50;;;;;;;3.83;2.67;;;16.70;99.90;;;;;;4976365;28;20118;-70
2022/06/29 03:40:16;;;;;;;6.13;2.50;;;16.70;99.90;;;;;;4976015;28;20399;-70
2022/06/29 03:42:42;;;;;;;4.43;2.40;;;16.70;99.90;;;;;;4959868;28;20049;-70
2022/06/29 03:45:08;;;;;;;5.70;2.50;;;16.60;99.90;;;;;;4976052;28;20049;-70
2022/06/29 03:47:34;;;;;;;4.38;2.70;;;16.60;99.90;;;;;;4959880;28;20155;-70
2022/06/29 03:50:03;;;;;;;3.10;2.28;;;16.60;99.90;;;;;;4976090;28;20038;-70
2022/06/29 03:52:28;;;;;;;5.72;2.97;;;16.60;99.90;;;;;;4993363;28;20042;-70
2022/06/29 03:54:54;;;;;;;7.63;3.05;;;16.60;99.90;;;;;;4993890;28;20121;-70
2022/06/29 03:57:19;;;;;;;3.72;2.53;;;16.60;99.90;;;;;;4976861;28;20089;-70
2022/06/29 03:59:45;;;;;;;11.13;2.92;;;16.60;99.90;;;;;;4997526;28;20390;-70
2022/06/29 04:02:10;;;;;;;5.78;3.08;;;16.60;99.90;;;;;;4979578;28;20461;-70
2022/06/29 04:04:36;;;;;;;5.13;2.65;;;16.60;99.90;;;;;;4963543;28;20042;-70
2022/06/29 04:07:01;;;;;;;6.82;2.75;;;16.60;99.90;;;;;;4979505;28;20121;-70
2022/06/29 04:09:27;;;;;;;7.78;2.90;;;16.60;99.90;;;;;;4979823;28;20089;-70
2022/06/29 04:11:53;;;;;;;5.22;2.53;;;16.60;99.90;;;;;;4979538;28;20046;-70
2022/06/29 04:14:21;;;;;;;5.28;2.75;;;16.70;99.90;;;;;;4963262;28;20041;-70
2022/06/29 04:16:47;;;;;;;5.10;2.20;;;16.70;99.90;;;;;;4963773;28;20157;-70
2022/06/29 04:19:12;;;;;;;4.75;2.67;;;16.70;99.90;;;;;;4995600;28;20518;-70
2022/06/29 04:21:38;;;;;;;7.03;2.90;;;16.70;99.90;;;;;;4979722;28;20057;-70
2022/06/29 04:24:05;;;;;;;4.68;2.67;;;16.70;99.90;;;;;;4979444;28;20050;-69
2022/06/29 04:26:30;;;;;;;4.13;2.53;;;16.80;99.90;;;;;;4995589;28;20510;-69
2022/06/29 04:28:56;;;;;;;4.57;2.42;;;16.80;99.90;;;;;;4979328;28;20121;-69
2022/06/29 04:31:21;;;;;;;5.63;2.45;;;16.80;99.90;;;;;;4979064;28;20096;-70
2022/06/29 04:33:47;;;;;;;6.10;2.63;;;16.80;99.90;;;;;;4979079;28;20038;-70
2022/06/29 04:36:13;;;;;;;5.85;2.38;;;16.90;99.90;;;;;;4963162;28;20134;-70
2022/06/29 04:38:38;;;;;;;5.30;3.08;;;16.90;99.90;;;;;;4979737;28;20482;-70
2022/06/29 04:41:04;;;;;;;4.32;2.45;;;17.00;99.90;;;;;;4979216;28;20108;-70
2022/06/29 04:43:30;;;;;;;7.35;2.58;;;17.00;99.90;;;;;;4978991;28;20046;-70
2022/06/29 04:48:41;;;;;;;4.72;2.50;;;17.00;99.90;;;;;;4978918;28;20054;-69
2022/06/29 04:51:07;;;;;;;6.35;2.72;;;17.00;99.90;;;;;;4994691;28;20483;-70
2022/06/29 04:53:33;;;;;;;4.00;2.30;;;17.10;99.90;;;;;;4979145;28;20052;-70
2022/06/29 04:55:58;;;;;;;3.47;2.13;;;17.10;99.90;;;;;;4978769;28;20121;-70
2022/06/29 04:58:24;;;;;;;7.90;2.85;;;17.20;99.90;;;;;;4978747;28;20048;-70
2022/06/29 05:00:50;;;;;;;8.27;2.53;;;17.20;99.90;;;;;;4978669;28;20121;-70
2022/06/29 05:03:15;;;;;;;5.35;2.35;;;17.20;99.90;;;;;;4978763;28;20046;-70
2022/06/29 05:05:41;;;;;;;3.22;2.30;;;17.30;99.90;;;;;;4978993;28;20050;-70
2022/06/29 05:08:07;;;;;;;4.97;2.42;;;17.30;99.90;;;;;;4961996;28;20046;-70
2022/06/29 05:10:32;;;;;;;4.72;2.42;;;17.40;99.90;;;;;;4978410;28;20042;-70
2022/06/29 05:12:58;;;;;;;5.20;2.35;;;17.40;99.90;;;;;;4962505;28;20129;-70
2022/06/29 05:15:24;;;;;;;5.25;2.50;;;17.40;99.90;;;;;;4978407;28;20043;-70
2022/06/29 05:17:49;;;;;;;4.53;2.17;;;17.50;99.90;;;;;;4978617;28;20129;-70
2022/06/29 05:20:15;;;;;;;3.83;2.13;;;17.40;99.90;;;;;;4978278;28;20045;-69
2022/06/29 05:22:41;;;;;;;3.80;2.28;;;17.50;99.90;;;;;;4978186;28;20046;-69
2022/06/29 05:25:08;;;;;;;3.92;2.10;;;17.50;99.90;;;;;;4978340;28;20046;-69
2022/06/29 05:27:34;;;;;;;7.07;2.35;;;17.60;99.90;;;;;;4979146;28;20060;-70
2022/06/29 05:29:59;;;;;;;4.53;2.22;;;17.60;99.90;;;;;;4978158;28;20546;-69
2022/06/29 05:32:25;;;;;;;5.03;1.98;;;17.70;99.90;;;;;;4978026;28;20104;-69
2022/06/29 05:34:51;;;;;;;4.30;2.00;;;17.80;99.90;;;;;;4977995;28;20053;-69
2022/06/29 05:37:17;;;;;;;5.13;1.88;;;17.80;99.90;;;;;;4978170;28;20078;-69
2022/06/29 05:39:44;;;;;;;4.38;1.92;;;17.80;99.90;;;;;;4978054;28;20046;-69
2022/06/29 05:42:12;;;;;;;7.53;2.03;;;17.90;99.90;;;;;;4977955;28;20049;-69
2022/06/29 05:44:38;;;;;;;4.00;2.00;;;18.00;99.90;;;;;;4962065;28;20117;-69
2022/06/29 05:47:04;;;;;;;4.88;1.90;;;18.00;99.90;;;;;;4995221;28;20034;-69
2022/06/29 05:49:30;;;;;;;5.10;1.90;;;18.10;99.90;;;;;;4977771;28;20126;-69
2022/06/29 05:51:56;;;;;;;3.28;1.55;;;18.20;99.90;;;;;;4961366;28;20129;-69
2022/06/29 05:54:21;;;;;;;4.75;2.10;;;18.20;99.90;;;;;;4977674;28;20549;-69
2022/06/29 05:56:47;;;;;;;5.68;1.90;;;18.30;99.90;;;;;;4977823;28;20041;-69
2022/06/29 05:59:13;;;;;;;3.55;1.70;;;18.40;99.90;;;;;;4977480;28;20515;-69
2022/06/29 06:01:38;;;;;;;6.07;1.70;;;18.40;99.90;;;;;;4977503;28;20125;-69
2022/06/29 06:04:04;;;;;;;4.53;1.58;;;18.50;99.90;;;;;;4977455;28;20038;-69
2022/06/29 06:06:30;;;;;;;4.75;1.75;;;18.50;99.90;;;;;;4977486;28;20050;-69
2022/06/29 06:08:55;;;;;;;4.78;1.80;;;18.60;99.90;;;;;;4977592;28;20121;-69
2022/06/29 06:11:21;;;;;;;4.07;1.77;;;18.70;99.90;;;;;;4977458;28;20044;-69
2022/06/29 06:13:46;;;;;;;3.80;1.90;;;18.70;99.90;;;;;;4977539;28;20038;-69
2022/06/29 06:16:12;;;;;;;4.22;1.98;;;18.70;99.90;;;;;;4961188;28;20473;-69
2022/06/29 06:18:38;;;;;;;3.28;1.50;;;18.80;99.90;;;;;;4977681;28;20038;-69
2022/06/29 06:21:03;;;;;;;5.18;1.70;;;18.80;99.90;;;;;;4977025;28;20550;-69
2022/06/29 06:23:29;;;;;;;3.15;1.73;;;18.90;99.90;;;;;;4977259;28;20078;-69
2022/06/29 06:25:54;;;;;;;3.88;1.60;;;19.00;99.90;;;;;;4977030;28;20410;-69
2022/06/29 06:28:20;;;;;;;4.63;1.70;;;19.00;99.90;;;;;;4976969;28;20069;-69
2022/06/29 06:30:45;;;;;;;5.88;1.50;;;19.10;99.90;;;;;;4977006;28;20062;-69
2022/06/29 06:33:11;;;;;;;3.78;1.67;;;19.10;99.90;;;;;;4977145;28;20043;-69
2022/06/29 06:35:37;;;;;;;4.65;1.60;;;19.20;99.90;;;;;;4976843;28;20473;-68
2022/06/29 06:38:03;;;;;;;5.15;1.88;;;19.30;99.90;;;;;;4977134;28;20049;-69
2022/06/29 06:43:13;;;;;;;3.53;2.00;;;19.40;99.90;;;;;;4977181;28;20038;-69
2022/06/29 06:45:39;;;;;;;4.20;1.77;;;19.40;99.90;;;;;;4976662;28;20384;-69
2022/06/29 06:48:04;;;;;;;4.07;1.77;;;19.60;99.90;;;;;;4976702;28;20038;-69
2022/06/29 06:50:30;;;;;;;2.88;1.48;;;19.60;99.90;;;;;;4976375;28;20046;-69
2022/06/29 06:52:56;;;;;;;4.97;1.73;;;19.70;99.90;;;;;;4976676;28;20030;-69
2022/06/29 06:55:21;;;;;;;5.90;1.73;;;19.80;99.90;;;;;;4976594;28;20034;-69
2022/06/29 06:57:47;;;;;;;4.85;1.48;;;19.90;99.90;;;;;;4960855;28;20115;-69
2022/06/29 07:00:13;;;;;;;5.45;1.80;;;19.90;99.90;;;;;;4977007;28;20054;-69
2022/06/29 07:02:39;;;;;;;3.13;1.50;;;20.00;99.90;;;;;;4976491;28;20141;-69
2022/06/29 07:05:05;;;;;;;6.80;2.00;;;20.10;99.90;;;;;;4976276;28;20042;-69
2022/06/29 07:07:30;;;;;;;4.65;1.52;;;20.20;99.90;;;;;;4992511;28;20177;-69
2022/06/29 07:09:56;;;;;;;5.95;1.98;;;20.20;99.90;;;;;;4976334;28;20129;-69
2022/06/29 07:12:22;;;;;;;4.43;1.70;;;20.30;99.90;;;;;;4960178;28;20034;-69
2022/06/29 07:14:47;;;;;;;3.33;1.27;;;20.40;99.90;;;;;;4976554;28;20125;-69
2022/06/29 07:17:13;;;;;;;4.35;1.42;;;20.50;99.90;;;;;;4976237;28;20042;-69
2022/06/29 07:19:38;;;;;;;4.28;1.40;;;20.50;99.90;;;;;;4976535;28;20038;-69
2022/06/29 07:22:05;;;;;;;3.30;1.95;;;20.70;99.90;;;;;;4976184;28;20054;-69
2022/06/29 07:24:31;;;;;;;5.57;1.60;;;20.80;99.90;;;;;;4976132;28;20042;-69
2022/06/29 07:26:57;;;;;;;4.80;1.73;;;20.90;99.90;;;;;;4976178;28;20144;-69
2022/06/29 07:29:23;;;;;;;6.88;1.73;;;21.00;99.90;;;;;;4976158;28;20030;-68
2022/06/29 07:31:48;;;;;;;4.00;1.40;;;21.10;99.90;;;;;;4977615;28;20046;-69
2022/06/29 07:34:14;;;;;;;3.47;1.10;;;21.20;99.90;;;;;;4980333;28;20129;-68
2022/06/29 07:36:40;;;;;;;3.30;1.00;;;21.30;99.90;;;;;;4980178;28;20396;-68
2022/06/29 07:39:05;;;;;;;4.03;1.38;;;21.40;99.90;;;;;;4980234;28;20049;-69
2022/06/29 07:41:31;;;;;;;4.88;1.60;;;21.50;99.90;;;;;;4979935;28;20083;-69
2022/06/29 07:43:56;;;;;;;6.25;1.40;;;21.60;99.90;;;;;;4979899;28;20410;-70
2022/06/29 07:46:22;;;;;;;3.08;1.00;;;21.70;99.90;;;;;;4980017;28;20487;-69
2022/06/29 07:48:48;;;;;;;6.20;1.33;;;21.80;99.90;;;;;;4979867;28;20125;-69
2022/06/29 07:51:13;;;;;;;2.10;1.10;;;22.00;99.90;;;;;;4963518;28;20125;-69
2022/06/29 07:53:39;;;;;;;3.35;1.38;;;22.10;99.90;;;;;;4979881;28;20100;-69
2022/06/29 07:56:05;;;;;;;3.80;1.08;;;22.30;99.90;;;;;;4963886;28;20050;-69
2022/06/29 07:58:30;;;;;;;4.15;0.90;;;22.40;99.60;;;;;;4979783;28;20114;-69
2022/06/29 08:00:56;;;;;;;2.88;1.33;;;22.60;99.00;;;;;;4979916;28;20050;-69
2022/06/29 08:03:22;;;;;;;4.93;1.08;;;22.70;96.50;;;;;;4979941;28;20521;-69
2022/06/29 08:05:48;;;;;;;5.88;1.50;;;22.90;96.10;;;;;;4979575;28;20453;-69
2022/06/29 08:08:14;;;;;;;5.45;1.10;;;23.10;93.60;;;;;;4979895;28;20049;-69
2022/06/29 08:10:39;;;;;;;5.00;1.10;;;23.10;95.00;;;;;;4979488;28;20384;-69
2022/06/29 08:13:05;;;;;;;2.60;0.88;;;23.10;93.80;;;;;;4979438;28;20038;-69
2022/06/29 08:15:31;;;;;;;2.53;1.05;;;23.10;91.80;;;;;;4979441;28;20041;-69
2022/06/29 08:17:57;;;;;;;5.60;1.17;;;23.20;90.50;;;;;;4979461;28;20113;-69
2022/06/29 08:20:23;;;;;;;4.68;1.30;;;23.20;91.20;;;;;;4963184;28;20118;-69
2022/06/29 08:22:49;;;;;;;7.75;1.20;;;23.20;92.90;;;;;;4996689;28;20117;-69
2022/06/29 08:25:15;;;;;;;3.90;1.02;;;23.30;94.90;;;;;;4979211;28;20050;-69
2022/06/29 08:27:41;;;;;;;3.05;0.98;;;23.30;91.80;;;;;;4995370;28;20039;-69
2022/06/29 08:30:08;;;;;;;3.58;1.10;;;23.30;93.60;;;;;;4979375;28;20085;-69
2022/06/29 08:32:34;;;;;;;2.42;1.13;;;23.40;94.10;;;;;;4979081;28;20558;-69
2022/06/29 08:35:01;;;;;;;5.72;1.10;;;23.40;93.00;;;;;;4979154;28;20034;-69
2022/06/29 08:37:30;;;;;;;2.60;1.40;;;23.40;94.40;;;;;;4979211;28;20466;-69
2022/06/29 08:39:56;;;;;;;5.50;0.90;;;23.40;95.90;;;;;;4978948;28;20038;-69
2022/06/29 08:42:23;;;;;;;4.07;1.17;;;23.50;94.80;;;;;;4979486;28;20042;-69
2022/06/29 08:44:49;;;;;;;8.30;1.20;;;23.70;96.70;;;;;;4962692;28;20112;-69
2022/06/29 08:47:16;;;;;;;3.63;1.00;;;24.00;97.70;;;;;;4995292;28;20471;-69
2022/06/29 08:49:44;;;;;;;7.63;1.40;;;24.20;94.40;;;;;;4978670;28;20038;-69
2022/06/29 08:52:11;;;;;;;3.42;1.30;;;24.50;91.30;;;;;;4978878;28;20553;-69
2022/06/29 08:54:44;;;;;;;4.47;1.55;;;24.70;84.50;;;;;;4978642;28;20191;-69
2022/06/29 08:57:11;;;;;;;2.97;1.25;;;24.80;86.30;;;;;;4978681;28;20046;-69
2022/06/29 08:59:36;;;;;;;4.30;1.20;;;24.80;88.50;;;;;;4995983;28;20506;-69
2022/06/29 09:02:03;;;;;;;4.50;1.20;;;24.90;89.50;;;;;;4978537;28;20042;-69
2022/06/29 09:04:29;;;;;;;3.17;1.33;;;25.00;87.60;;;;;;4978522;28;20103;-70
2022/06/29 09:06:56;;;;;;;3.90;1.52;;;24.90;81.50;;;;;;4995148;28;20137;-70
2022/06/29 09:09:23;;;;;;;2.55;1.45;;;24.90;80.30;;;;;;4978823;28;20050;-70
2022/06/29 09:11:52;;;;;;;4.55;1.10;;;24.90;83.00;;;;;;4978242;28;20082;-70
2022/06/29 09:14:21;;;;;;;3.03;1.00;;;24.90;86.60;;;;;;4994552;28;20042;-70
2022/06/29 09:16:56;;;;;;;5.25;1.30;;;24.90;88.30;;;;;;4978328;28;20046;-70
2022/06/29 09:19:44;;;;;;;3.55;1.25;;;25.00;83.80;;;;;;4978516;28;20053;-70
2022/06/29 09:22:10;;;;;;;6.45;1.10;;;25.10;89.60;;;;;;4995041;28;20046;-70
2022/06/29 09:24:35;;;;;;;11.18;1.30;;;25.20;88.70;;;;;;4978089;28;20050;-69
2022/06/29 09:27:06;;;;;;;4.45;1.25;;;25.50;90.50;;;;;;4995791;28;20042;-69
2022/06/29 09:29:35;;;;;;;3.55;1.45;;;25.60;71.00;;;;;;4978450;28;20077;-70
2022/06/29 09:32:01;;;;;;;8.13;1.30;;;25.80;69.00;;;;;;4995309;28;20053;-70
2022/06/29 09:34:29;;;;;;;5.32;1.17;;;26.00;69.40;;;;;;4995910;28;20114;-70
2022/06/29 09:36:55;;;;;;;2.80;0.90;;;26.20;66.00;;;;;;4995325;28;20038;-70
2022/06/29 09:39:46;;;;;;;3.22;1.02;;;26.40;63.50;;;;;;4978284;28;20034;-69
2022/06/29 09:42:14;;;;;;;4.43;1.33;;;26.70;64.10;;;;;;4994287;28;20049;-69
2022/06/29 09:44:41;;;;;;;3.33;0.90;;;26.90;62.30;;;;;;4994030;28;20038;-69
2022/06/29 09:47:12;;;;;;;2.97;0.95;;;27.00;61.70;;;;;;4977710;28;20065;-71
2022/06/29 09:49:38;;;;;;;3.00;1.95;;;27.10;60.90;;;;;;4977721;28;20070;-71
2022/06/29 09:52:06;;;;;;;4.75;1.30;;;27.20;60.90;;;;;;4977544;28;20053;-72
2022/06/29 09:54:47;;;;;;;4.38;1.15;;;27.40;61.00;;;;;;4977616;28;20046;-71
2022/06/29 09:57:15;;;;;;;1.73;1.10;;;27.50;62.70;;;;;;4977848;28;20038;-71
2022/06/29 10:02:45;;;;;;;6.60;1.45;;;27.90;60.30;;;;;;4977396;28;20050;-71
2022/06/29 10:05:15;;;;;;;3.10;1.30;;;28.10;55.20;;;;;;4977618;28;20097;-71
2022/06/29 10:07:46;;;;;;;4.28;1.23;;;28.20;55.00;;;;;;4977397;28;20499;-71
2022/06/29 10:10:14;;;;;;;4.18;1.20;;;28.10;53.30;;;;;;4977242;28;20034;-71
2022/06/29 10:15:56;;;;;;;3.03;1.60;;;28.00;52.20;;;;;;4977385;28;20050;-71
2022/06/29 10:18:54;;;;;;;3.85;1.20;;;27.90;54.60;;;;;;4977216;28;20047;-71
2022/06/29 10:21:27;;;;;;;2.65;1.42;;;27.90;56.40;;;;;;4977037;28;20042;-72
2022/06/29 10:23:54;;;;;;;3.08;1.38;;;27.80;56.20;;;;;;4977308;28;20042;-72
2022/06/29 10:26:39;;;;;;;2.50;1.08;;;28.00;58.20;;;;;;4993474;28;20529;-72
2022/06/29 10:29:19;;;;;;;2.80;1.10;;;28.30;57.00;;;;;;4960847;28;20053;-71
2022/06/29 10:31:51;;;;;;;7.05;1.60;;;28.50;58.10;;;;;;4976792;28;20049;-71
2022/06/29 10:34:32;;;;;;;2.35;1.27;;;28.90;55.80;;;;;;4976975;28;20048;-71
2022/06/29 10:37:08;;;;;;;3.55;1.00;;;29.00;55.40;;;;;;4976827;28;20054;-71
2022/06/29 10:39:49;;;;;;;6.30;1.30;;;29.00;54.60;;;;;;4977068;28;20518;-72
2022/06/29 10:45:13;;;;;;;2.47;1.10;;;29.20;53.90;;;;;;4976893;28;20042;-71
2022/06/29 10:47:39;;;;;;;4.32;1.20;;;29.20;53.40;;;;;;4960940;28;20046;-72
2022/06/29 10:50:18;;;;;;;3.17;1.20;;;29.30;53.70;;;;;;4992904;28;20410;-71
2022/06/29 10:52:46;;;;;;;3.42;1.40;;;29.50;54.80;;;;;;4976420;28;20050;-71
2022/06/29 10:55:17;;;;;;;3.50;1.40;;;29.60;52.70;;;;;;4976509;28;20092;-71
2022/06/29 10:57:44;;;;;;;4.28;1.55;;;29.70;53.10;;;;;;4961318;28;20086;-71
2022/06/29 11:00:38;;;;;;;2.95;1.13;;;29.70;51.70;;;;;;4993097;28;20046;-72
2022/06/29 11:03:15;;;;;;;3.58;1.15;;;29.50;49.90;;;;;;4993246;28;20081;-71
2022/06/29 11:15:39;;;;;;;4.70;1.23;;;29.50;52.10;;;;;;4976591;28;20042;-72
2022/06/29 11:16:53;;;;;;;3.58;1.10;;;29.70;51.80;;;;;;4976336;28;20042;-71
2022/06/29 11:19:24;;;;;;;2.17;1.13;;;29.90;50.00;;;;;;4977163;28;20042;-71
2022/06/29 11:22:15;;;;;;;4.23;1.20;;;30.20;49.90;;;;;;4993937;28;20093;-71
2022/06/29 11:24:58;;;;;;;2.08;1.20;;;30.20;48.30;;;;;;4976262;28;20297;-71
2022/06/29 11:27:38;;;;;;;3.85;1.33;;;30.40;49.00;;;;;;4992429;28;20050;-71
2022/06/29 11:30:06;;;;;;;1.73;1.13;;;30.40;47.30;;;;;;4976246;28;20455;-71
2022/06/29 11:32:41;;;;;;;4.53;1.30;;;30.10;47.50;;;;;;4976383;28;20491;-71
2022/06/29 11:35:08;;;;;;;2.70;1.15;;;29.90;47.90;;;;;;4976193;28;20050;-72
2022/06/29 11:37:34;;;;;;;3.13;1.27;;;29.70;49.80;;;;;;4976141;28;20050;-72
2022/06/29 11:40:00;;;;;;;7.07;1.60;;;29.70;50.70;;;;;;4976125;28;20043;-72
2022/06/29 11:45:17;;;;;;;3.70;1.50;;;29.50;50.20;;;;;;4976191;28;20055;-72
2022/06/29 11:47:53;;;;;;;3.03;1.50;;;29.30;51.90;;;;;;4976079;28;20042;-72
2022/06/29 11:50:22;;;;;;;3.78;1.55;;;29.20;52.20;;;;;;4992622;28;20078;-71
2022/06/29 11:52:49;;;;;;;5.82;1.83;;;29.10;53.30;;;;;;4975960;28;20081;-71
2022/06/29 11:55:15;;;;;;;5.35;1.80;;;29.20;52.30;;;;;;4975950;28;20384;-71
2022/06/29 11:57:41;;;;;;;5.57;2.00;;;29.10;53.20;;;;;;4960027;28;20045;-71
2022/06/29 12:00:08;;;;;;;2.65;1.55;;;29.20;54.70;;;;;;4976060;28;20045;-71
2022/06/29 12:02:34;;;;;;;6.03;1.85;;;29.40;55.30;;;;;;4992060;28;20101;-71
2022/06/29 12:05:01;;;;;;;3.47;1.40;;;29.70;54.60;;;;;;4975927;28;20042;-71
2022/06/29 12:07:28;;;;;;;3.80;1.63;;;29.90;54.50;;;;;;4976082;28;20121;-71
2022/06/29 12:09:55;;;;;;;5.45;1.95;;;30.10;52.70;;;;;;4976058;28;20061;-71
2022/06/29 12:12:21;;;;;;;2.67;1.90;;;30.30;54.50;;;;;;4993335;28;20092;-71
2022/06/29 12:14:47;;;;;;;3.03;1.65;;;30.30;52.40;;;;;;4976094;28;20503;-71
2022/06/29 12:17:14;;;;;;;5.55;1.70;;;30.40;54.00;;;;;;4991974;28;20154;-71
2022/06/29 12:19:40;;;;;;;3.70;2.10;;;30.50;55.20;;;;;;4978666;28;20046;-71
2022/06/29 12:22:06;;;;;;;3.47;1.92;;;30.70;53.80;;;;;;4995513;28;20053;-71
2022/06/29 12:24:32;;;;;;;3.30;2.15;;;30.90;53.50;;;;;;4995980;28;20046;-71
2022/06/29 12:26:57;;;;;;;4.32;1.67;;;30.90;52.00;;;;;;4979267;28;20121;-71
2022/06/29 12:29:23;;;;;;;5.60;2.03;;;31.00;54.60;;;;;;4979631;28;20101;-71
2022/06/29 12:31:49;;;;;;;4.35;2.03;;;31.00;52.90;;;;;;4962780;28;20487;-72
2022/06/29 12:34:15;;;;;;;4.10;2.20;;;30.80;52.30;;;;;;4979108;28;20049;-72
2022/06/29 12:36:41;;;;;;;4.00;1.92;;;30.80;52.50;;;;;;4995260;28;20038;-71
2022/06/29 12:39:08;;;;;;;4.38;2.20;;;30.80;52.20;;;;;;4979278;28;20487;-71
2022/06/29 12:41:34;;;;;;;4.97;2.13;;;30.80;52.60;;;;;;4979391;28;20117;-71
2022/06/29 12:44:02;;;;;;;3.47;2.10;;;30.90;53.40;;;;;;4979365;28;20061;-71
2022/06/29 12:46:29;;;;;;;3.70;2.15;;;31.00;54.10;;;;;;4978883;28;20053;-71
2022/06/29 12:48:55;;;;;;;4.28;2.20;;;31.00;52.90;;;;;;4980002;28;20418;-71
2022/06/29 12:51:21;;;;;;;4.28;2.38;;;30.90;52.40;;;;;;4994819;28;20511;-71
2022/06/29 12:53:47;;;;;;;4.68;2.22;;;30.90;53.90;;;;;;4963022;28;20053;-71
2022/06/29 12:56:13;;;;;;;3.70;2.40;;;31.00;52.90;;;;;;4978912;28;20556;-71
2022/06/29 12:58:39;;;;;;;2.70;2.22;;;31.10;53.00;;;;;;4994976;28;20039;-71
2022/06/29 13:01:05;;;;;;;4.63;2.40;;;31.00;52.90;;;;;;4978519;28;20096;-72
2022/06/29 13:03:31;;;;;;;4.28;2.13;;;31.10;52.70;;;;;;4995112;28;20526;-72
2022/06/29 13:05:56;;;;;;;4.00;2.30;;;31.20;52.50;;;;;;4978735;28;20038;-72
2022/06/29 13:08:22;;;;;;;5.00;2.28;;;31.20;52.80;;;;;;4978487;28;20050;-72
2022/06/29 13:10:48;;;;;;;3.33;2.08;;;31.20;53.60;;;;;;4962296;28;20043;-72
2022/06/29 13:13:14;;;;;;;4.85;2.90;;;31.20;53.00;;;;;;4978401;28;20034;-72
2022/06/29 13:15:40;;;;;;;6.57;2.42;;;31.20;52.20;;;;;;4978523;28;20049;-71